createdAt,value
2023-03-20T00:02:00.165Z,17.20
2023-03-20T00:04:27.519Z,14.40
2023-03-20T00:06:54.866Z,12.17
2023-03-20T00:09:22.474Z,13.97
2023-03-20T00:11:51.283Z,12.83
2023-03-20T00:14:19.568Z,13.23
2023-03-20T00:16:47.915Z,13.47
2023-03-20T00:19:17.398Z,15.90
2023-03-20T00:21:46.596Z,12.87
2023-03-20T00:24:14.691Z,14.37
2023-03-20T00:26:42.814Z,13.30
2023-03-20T00:29:11.689Z,17.53
2023-03-20T00:31:40.072Z,15.27
2023-03-20T00:34:09.143Z,15.17
2023-03-20T00:36:36.586Z,16.93
2023-03-20T00:39:04.464Z,19.20
2023-03-20T00:41:33.356Z,19.17
2023-03-20T00:44:02.233Z,18.30
2023-03-20T00:46:30.763Z,17.43
2023-03-20T00:48:58.075Z,16.50
2023-03-20T00:51:25.430Z,17.30
2023-03-20T00:53:52.762Z,17.10
2023-03-20T00:56:24.578Z,17.93
2023-03-20T00:58:51.935Z,17.90
2023-03-20T01:01:20.080Z,16.10
2023-03-20T01:03:47.416Z,15.80
2023-03-20T01:06:14.773Z,17.43
2023-03-20T01:08:42.110Z,17.17
2023-03-20T01:11:10.601Z,18.17
2023-03-20T01:13:38.911Z,14.03
2023-03-20T01:16:06.876Z,16.00
2023-03-20T01:18:34.158Z,16.10
2023-03-20T01:21:01.513Z,16.67
2023-03-20T01:23:28.851Z,16.00
2023-03-20T01:25:56.211Z,18.33
2023-03-20T01:28:24.415Z,16.30
2023-03-20T01:30:52.400Z,16.10
2023-03-20T01:33:21.276Z,16.37
2023-03-20T01:35:49.266Z,20.20
2023-03-20T01:38:18.362Z,21.17
2023-03-20T01:40:59.175Z,19.30
2023-03-20T01:43:26.988Z,22.23
2023-03-20T01:46:14.142Z,29.67
2023-03-20T01:48:52.321Z,24.77
2023-03-20T01:51:22.047Z,24.27
2023-03-20T01:53:50.928Z,26.17
2023-03-20T01:56:18.586Z,27.57
2023-03-20T01:58:47.471Z,27.70
2023-03-20T02:01:15.759Z,27.07
2023-03-20T02:03:44.711Z,32.43
2023-03-20T02:06:12.419Z,29.47
2023-03-20T02:08:46.945Z,26.93
2023-03-20T02:11:16.327Z,29.60
2023-03-20T02:13:44.553Z,29.80
2023-03-20T02:16:12.924Z,30.37
2023-03-20T02:18:41.375Z,35.07
2023-03-20T02:21:27.003Z,35.43
2023-03-20T02:24:05.095Z,29.27
2023-03-20T02:26:34.952Z,31.17
2023-03-20T02:29:03.913Z,34.30
2023-03-20T02:31:38.493Z,34.60
2023-03-20T02:34:10.413Z,32.67
2023-03-20T02:36:39.305Z,33.40
2023-03-20T02:39:26.481Z,31.90
2023-03-20T02:41:55.366Z,37.63
2023-03-20T02:44:36.639Z,43.40
2023-03-20T02:47:05.542Z,34.57
2023-03-20T02:49:52.426Z,34.50
2023-03-20T02:52:21.333Z,36.50
2023-03-20T02:54:59.804Z,37.90
2023-03-20T02:57:28.676Z,41.27
2023-03-20T03:00:04.555Z,35.80
2023-03-20T03:02:34.311Z,39.27
2023-03-20T03:05:03.252Z,36.17
2023-03-20T03:07:32.609Z,40.33
2023-03-20T03:10:08.100Z,39.07
2023-03-20T03:12:44.616Z,39.67
2023-03-20T03:15:16.270Z,45.73
2023-03-20T03:17:45.315Z,44.13
2023-03-20T03:20:17.180Z,45.13
2023-03-20T03:22:44.901Z,51.60
2023-03-20T03:25:13.735Z,46.90
2023-03-20T03:27:42.606Z,55.47
2023-03-20T03:30:14.611Z,65.83
2023-03-20T03:32:52.710Z,59.13
2023-03-20T03:35:21.628Z,60.27
2023-03-20T03:37:50.699Z,66.37
2023-03-20T03:40:26.680Z,62.73
2023-03-20T03:42:55.753Z,73.60
2023-03-20T03:45:24.636Z,76.60
2023-03-20T03:47:53.517Z,72.43
2023-03-20T03:50:28.334Z,84.90
2023-03-20T03:52:58.187Z,72.73
2023-03-20T03:55:26.909Z,93.10
2023-03-20T03:57:58.919Z,93.10
2023-03-20T04:00:27.902Z,83.03
2023-03-20T04:02:56.512Z,76.53
2023-03-20T04:05:25.728Z,63.43
2023-03-20T04:07:56.870Z,72.90
2023-03-20T04:10:24.412Z,65.77
2023-03-20T04:12:52.008Z,70.40
2023-03-20T04:15:21.256Z,65.33
2023-03-20T04:17:48.589Z,72.70
2023-03-20T04:20:16.148Z,80.13
2023-03-20T04:22:43.480Z,71.87
2023-03-20T04:25:12.428Z,71.40
2023-03-20T04:27:39.763Z,66.10
2023-03-20T04:30:07.770Z,81.87
2023-03-20T04:32:35.141Z,76.70
2023-03-20T04:35:02.462Z,74.67
2023-03-20T04:37:30.380Z,77.20
2023-03-20T04:39:57.709Z,92.43
2023-03-20T04:42:25.134Z,95.20
2023-03-20T04:44:52.489Z,100.03
2023-03-20T04:47:19.832Z,112.17
2023-03-20T04:49:47.249Z,104.97
2023-03-20T04:52:14.582Z,96.07
2023-03-20T04:54:42.102Z,107.40
2023-03-20T04:57:09.444Z,101.73
2023-03-20T04:59:36.835Z,115.27
2023-03-20T05:02:04.155Z,104.77
2023-03-20T05:04:31.664Z,97.40
2023-03-20T05:06:59.124Z,102.30
2023-03-20T05:09:26.468Z,113.43
2023-03-20T05:11:53.831Z,93.70
2023-03-20T05:14:21.344Z,114.27
2023-03-20T05:16:49.798Z,120.33
2023-03-20T05:19:17.322Z,136.67
2023-03-20T05:21:44.744Z,110.90
2023-03-20T05:24:12.081Z,113.27
2023-03-20T05:26:39.424Z,114.50
2023-03-20T05:29:06.779Z,113.07
2023-03-20T05:31:34.141Z,112.00
2023-03-20T05:34:01.771Z,110.00
2023-03-20T05:36:29.206Z,95.80
2023-03-20T05:38:57.025Z,101.87
2023-03-20T05:41:24.360Z,90.37
2023-03-20T05:43:51.715Z,103.17
2023-03-20T05:46:19.098Z,86.70
2023-03-20T05:48:46.577Z,78.23
2023-03-20T05:51:14.023Z,75.83
2023-03-20T05:53:41.655Z,85.37
2023-03-20T05:56:09.195Z,89.07
2023-03-20T05:58:36.828Z,71.30
2023-03-20T06:01:04.172Z,77.57
2023-03-20T06:03:31.666Z,76.33
2023-03-20T06:05:59.088Z,75.63
2023-03-20T06:08:26.418Z,71.97
2023-03-20T06:10:53.749Z,80.20
2023-03-20T06:13:21.085Z,69.30
2023-03-20T06:15:48.468Z,75.60
2023-03-20T06:18:15.992Z,77.50
2023-03-20T06:20:43.508Z,78.63
2023-03-20T06:23:10.974Z,76.43
2023-03-20T06:25:38.561Z,78.57
2023-03-20T06:28:06.084Z,79.83
2023-03-20T06:30:33.439Z,73.47
2023-03-20T06:33:00.953Z,79.73
2023-03-20T06:35:30.011Z,84.73
2023-03-20T06:37:57.987Z,70.30
2023-03-20T06:40:27.205Z,68.33
2023-03-20T06:42:54.833Z,73.53
2023-03-20T06:45:22.831Z,75.17
2023-03-20T06:47:50.244Z,67.37
2023-03-20T06:50:17.706Z,76.70
2023-03-20T06:52:45.069Z,74.53
2023-03-20T06:55:12.700Z,74.30
2023-03-20T06:57:40.313Z,84.63
2023-03-20T07:00:09.634Z,84.37
2023-03-20T07:02:36.996Z,81.57
2023-03-20T07:05:04.525Z,85.77
2023-03-20T07:07:32.429Z,78.43
2023-03-20T07:09:59.768Z,72.57
2023-03-20T07:12:28.602Z,85.40
2023-03-20T07:14:56.133Z,74.73
2023-03-20T07:17:23.538Z,68.97
2023-03-20T07:19:51.558Z,73.37
2023-03-20T07:22:20.605Z,67.17
2023-03-20T07:24:47.949Z,66.03
2023-03-20T07:27:15.328Z,75.13
2023-03-20T07:29:42.683Z,68.43
2023-03-20T07:32:10.167Z,74.20
2023-03-20T07:34:37.793Z,65.90
2023-03-20T07:37:05.515Z,74.73
2023-03-20T07:39:32.992Z,71.47
2023-03-20T07:42:00.351Z,72.77
2023-03-20T07:44:27.696Z,65.50
2023-03-20T07:46:55.156Z,72.23
2023-03-20T07:49:22.570Z,69.33
2023-03-20T07:51:50.662Z,60.00
2023-03-20T07:54:18.475Z,60.37
2023-03-20T07:56:45.878Z,51.80
2023-03-20T07:59:13.804Z,60.77
2023-03-20T08:01:41.174Z,51.07
2023-03-20T08:04:08.854Z,52.00
2023-03-20T08:06:36.449Z,52.00
2023-03-20T08:09:04.077Z,47.20
2023-03-20T08:11:34.112Z,48.97
2023-03-20T08:14:00.597Z,44.83
2023-03-20T08:16:28.003Z,46.77
2023-03-20T08:18:56.955Z,42.10
2023-03-20T08:21:24.317Z,47.20
2023-03-20T08:23:51.664Z,42.17
2023-03-20T08:26:19.014Z,41.67
2023-03-20T08:28:48.207Z,39.03
2023-03-20T08:31:16.313Z,38.00
2023-03-20T08:33:44.361Z,37.40
2023-03-20T08:36:11.876Z,33.17
2023-03-20T08:38:39.214Z,26.97
2023-03-20T08:41:07.220Z,22.63
2023-03-20T08:43:34.577Z,25.60
2023-03-20T08:46:01.987Z,23.70
2023-03-20T08:48:29.315Z,25.13
2023-03-20T08:50:56.664Z,26.50
2023-03-20T08:53:25.042Z,29.27
2023-03-20T08:55:53.067Z,27.00
2023-03-20T08:58:21.275Z,27.83
2023-03-20T09:00:48.639Z,29.83
2023-03-20T09:03:17.550Z,28.97
2023-03-20T09:05:45.907Z,30.17
2023-03-20T09:08:13.825Z,30.40
2023-03-20T09:10:41.459Z,30.27
2023-03-20T09:13:25.711Z,29.30
2023-03-20T09:15:38.319Z,30.37
2023-03-20T09:18:05.875Z,29.53
2023-03-20T09:20:33.267Z,24.23
2023-03-20T09:23:00.624Z,29.43
2023-03-20T09:25:27.974Z,27.40
2023-03-20T09:27:55.940Z,25.80
2023-03-20T09:30:24.284Z,26.37
2023-03-20T09:32:52.041Z,22.57
2023-03-20T09:35:19.530Z,24.93
2023-03-20T09:37:47.033Z,24.63
2023-03-20T09:40:21.951Z,22.33
2023-03-20T09:42:50.831Z,25.67
2023-03-20T09:45:22.570Z,26.03
2023-03-20T09:47:51.456Z,24.60
2023-03-20T09:50:22.335Z,25.13
2023-03-20T09:53:07.690Z,23.37
2023-03-20T09:55:36.914Z,21.87
2023-03-20T09:58:05.879Z,21.90
2023-03-20T10:00:35.573Z,22.90
2023-03-20T10:03:04.576Z,21.67
2023-03-20T10:05:33.502Z,23.53
2023-03-20T10:08:02.397Z,21.77
2023-03-20T10:10:43.457Z,25.50
2023-03-20T10:13:12.313Z,22.83
2023-03-20T10:15:50.166Z,22.07
2023-03-20T10:18:19.099Z,24.17
2023-03-20T10:20:50.338Z,23.93
2023-03-20T10:23:21.597Z,24.20
2023-03-20T10:25:56.434Z,20.90
2023-03-20T10:28:25.341Z,20.70
2023-03-20T10:31:03.459Z,22.07
2023-03-20T10:33:32.298Z,21.60
2023-03-20T10:36:10.269Z,17.73
2023-03-20T10:38:48.211Z,16.97
2023-03-20T10:41:20.403Z,18.70
2023-03-20T10:43:49.301Z,17.87
2023-03-20T10:46:18.249Z,20.00
2023-03-20T10:48:47.445Z,17.90
2023-03-20T10:51:16.342Z,18.93
2023-03-20T10:53:45.213Z,17.87
2023-03-20T10:56:16.805Z,17.90
2023-03-20T10:58:44.649Z,18.23
2023-03-20T11:01:12.070Z,17.33
2023-03-20T11:03:41.033Z,16.27
2023-03-20T11:06:10.589Z,18.80
2023-03-20T11:08:39.628Z,15.27
2023-03-20T11:11:06.968Z,16.07
2023-03-20T11:13:38.844Z,17.17
2023-03-20T11:16:11.405Z,16.63
2023-03-20T11:18:40.318Z,17.20
2023-03-20T11:21:09.050Z,16.53
2023-03-20T11:23:36.398Z,14.10
2023-03-20T11:26:06.494Z,16.83
2023-03-20T11:28:35.628Z,13.20
2023-03-20T11:31:13.535Z,13.20
2023-03-20T11:33:45.270Z,13.93
2023-03-20T11:36:14.194Z,11.60
2023-03-20T11:38:45.819Z,12.20
2023-03-20T11:41:26.865Z,12.47
2023-03-20T11:43:54.481Z,10.07
2023-03-20T11:46:23.425Z,9.63
2023-03-20T11:49:07.603Z,9.23
2023-03-20T11:51:36.242Z,9.80
2023-03-20T11:54:05.311Z,9.30
2023-03-20T11:56:34.124Z,9.70
2023-03-20T11:59:08.675Z,10.67
2023-03-20T12:01:44.891Z,11.90
2023-03-20T12:04:14.062Z,12.17
2023-03-20T12:06:46.099Z,11.53
2023-03-20T12:09:14.965Z,12.50
2023-03-20T12:11:49.803Z,12.27
2023-03-20T12:14:18.952Z,15.87
2023-03-20T12:16:46.859Z,11.50
2023-03-20T12:19:17.390Z,17.30
2023-03-20T12:21:48.961Z,11.47
2023-03-20T12:24:34.129Z,13.00
2023-03-20T12:27:03.097Z,10.77
2023-03-20T12:29:34.900Z,10.17
2023-03-20T12:32:13.056Z,12.13
2023-03-20T12:34:41.955Z,12.37
2023-03-20T12:37:13.410Z,13.80
2023-03-20T12:39:42.332Z,12.27
2023-03-20T12:42:11.209Z,11.63
2023-03-20T12:44:42.776Z,12.23
2023-03-20T12:47:14.734Z,14.70
2023-03-20T12:49:49.970Z,13.47
2023-03-20T12:52:18.893Z,10.53
2023-03-20T12:54:47.761Z,14.70
2023-03-20T12:57:16.644Z,10.87
2023-03-20T12:59:48.223Z,12.27
2023-03-20T13:02:25.940Z,13.20
2023-03-20T13:05:01.132Z,10.20
2023-03-20T13:07:42.159Z,14.30
2023-03-20T13:10:11.099Z,10.40
2023-03-20T13:12:49.092Z,10.87
2023-03-20T13:15:33.047Z,11.30
2023-03-20T13:18:08.413Z,11.00
2023-03-20T13:20:40.165Z,11.33
2023-03-20T13:23:24.445Z,10.30
2023-03-20T13:25:59.532Z,9.90
2023-03-20T13:28:45.593Z,11.73
2023-03-20T13:31:31.014Z,11.47
2023-03-20T13:34:16.531Z,9.83
2023-03-20T13:36:45.563Z,10.47
2023-03-20T13:39:29.466Z,10.10
2023-03-20T13:41:57.891Z,10.60
2023-03-20T13:44:27.913Z,11.33
2023-03-20T13:46:59.947Z,10.60
2023-03-20T13:49:31.821Z,14.00
2023-03-20T13:52:03.650Z,9.60
2023-03-20T13:54:32.551Z,10.47
2023-03-20T13:57:04.389Z,11.47
2023-03-20T13:59:33.332Z,11.40
2023-03-20T14:02:02.421Z,10.30
2023-03-20T14:04:31.220Z,10.20
2023-03-20T14:06:59.576Z,12.73
2023-03-20T14:09:31.631Z,11.40
2023-03-20T14:12:03.249Z,10.47
2023-03-20T14:14:32.717Z,12.53
2023-03-20T14:17:10.484Z,12.27
2023-03-20T14:19:38.521Z,14.83
2023-03-20T14:22:06.720Z,11.13
2023-03-20T14:24:35.589Z,11.67
2023-03-20T14:27:03.266Z,12.23
2023-03-20T14:29:32.535Z,10.90
2023-03-20T14:32:07.442Z,10.00
2023-03-20T14:34:51.619Z,9.23
2023-03-20T14:37:26.251Z,9.27
2023-03-20T14:40:13.321Z,12.83
2023-03-20T14:42:51.248Z,9.60
2023-03-20T14:45:26.099Z,10.00
2023-03-20T14:48:01.775Z,9.47
2023-03-20T14:50:30.654Z,9.90
2023-03-20T14:53:16.266Z,9.77
2023-03-20T14:55:51.169Z,12.87
2023-03-20T14:58:36.623Z,10.73
2023-03-20T15:01:05.872Z,8.70
2023-03-20T15:03:33.870Z,10.73
2023-03-20T15:06:02.740Z,9.00
2023-03-20T15:08:31.664Z,9.80
2023-03-20T15:10:59.877Z,8.90
2023-03-20T15:13:28.498Z,8.67
2023-03-20T15:15:57.319Z,11.83
2023-03-20T15:18:26.158Z,9.70
2023-03-20T15:20:55.044Z,9.87
2023-03-20T15:23:22.494Z,9.10
2023-03-20T15:25:50.714Z,9.97
2023-03-20T15:28:20.021Z,10.13
2023-03-20T15:30:48.724Z,10.10
2023-03-20T15:33:20.624Z,12.07
2023-03-20T15:35:48.137Z,12.20
2023-03-20T15:38:16.665Z,10.30
2023-03-20T15:40:50.937Z,9.27
2023-03-20T15:43:17.451Z,8.73
2023-03-20T15:45:44.866Z,11.50
2023-03-20T15:48:16.069Z,12.30
2023-03-20T15:50:45.950Z,10.77
2023-03-20T15:53:14.865Z,11.70
2023-03-20T15:55:42.409Z,10.83
2023-03-20T15:58:11.326Z,10.20
2023-03-20T16:00:45.989Z,12.50
2023-03-20T16:03:14.896Z,12.90
2023-03-20T16:05:43.833Z,11.53
2023-03-20T16:08:15.574Z,12.37
2023-03-20T16:10:43.514Z,11.90
2023-03-20T16:13:12.378Z,11.70
2023-03-20T16:15:40.052Z,11.30
2023-03-20T16:18:08.099Z,12.27
2023-03-20T16:20:37.243Z,13.47
2023-03-20T16:23:07.048Z,11.03
2023-03-20T16:25:35.323Z,11.90
2023-03-20T16:28:05.533Z,11.17
2023-03-20T16:30:34.008Z,11.23
2023-03-20T16:33:03.156Z,11.23
2023-03-20T16:35:34.696Z,11.90
2023-03-20T16:38:05.385Z,12.17
2023-03-20T16:40:34.534Z,12.07
2023-03-20T16:43:06.536Z,13.80
2023-03-20T16:45:35.860Z,12.10
2023-03-20T16:48:13.825Z,13.40
2023-03-20T16:50:42.741Z,14.70
2023-03-20T16:53:14.555Z,12.30
2023-03-20T16:55:46.508Z,12.50
2023-03-20T16:58:24.680Z,12.73
2023-03-20T17:00:59.253Z,13.00
2023-03-20T17:03:31.468Z,18.00
2023-03-20T17:06:00.630Z,12.40
2023-03-20T17:08:38.723Z,12.73
2023-03-20T17:11:07.632Z,17.57
2023-03-20T17:13:34.978Z,17.93
2023-03-20T17:16:02.382Z,11.37
2023-03-20T17:18:29.997Z,11.30
2023-03-20T17:20:57.360Z,11.27
2023-03-20T17:23:24.694Z,12.93
2023-03-20T17:25:52.298Z,13.00
2023-03-20T17:28:21.192Z,12.83
2023-03-20T17:30:49.220Z,11.93
2023-03-20T17:33:17.460Z,10.70
2023-03-20T17:35:45.286Z,12.23
2023-03-20T17:38:16.907Z,11.90
2023-03-20T17:40:44.228Z,9.33
2023-03-20T17:43:12.984Z,13.33
2023-03-20T17:45:40.750Z,14.03
2023-03-20T17:48:10.489Z,11.50
2023-03-20T17:50:38.063Z,11.27
2023-03-20T17:53:06.058Z,10.90
2023-03-20T17:55:33.475Z,11.43
2023-03-20T17:58:01.006Z,12.57
2023-03-20T18:00:30.449Z,13.10
2023-03-20T18:02:57.860Z,11.50
2023-03-20T18:05:25.388Z,12.90
2023-03-20T18:07:52.804Z,13.63
2023-03-20T18:10:21.833Z,13.40
2023-03-20T18:12:49.163Z,13.60
2023-03-20T18:15:16.560Z,11.87
2023-03-20T18:17:43.907Z,11.30
2023-03-20T18:20:18.745Z,13.90
2023-03-20T18:22:46.307Z,10.40
2023-03-20T18:25:13.692Z,13.50
2023-03-20T18:27:41.019Z,12.10
2023-03-20T18:30:18.807Z,11.70
2023-03-20T18:32:46.453Z,14.77
2023-03-20T18:35:14.292Z,14.60
2023-03-20T18:37:42.026Z,12.87
2023-03-20T18:40:14.085Z,13.80
2023-03-20T18:42:41.441Z,13.17
2023-03-20T18:45:09.102Z,12.33
2023-03-20T18:47:36.433Z,11.13
2023-03-20T18:50:04.157Z,11.27
2023-03-20T18:52:31.684Z,13.87
2023-03-20T18:54:59.037Z,13.53
2023-03-20T18:57:26.856Z,15.30
2023-03-20T18:59:54.245Z,19.60
2023-03-20T19:02:21.556Z,12.47
2023-03-20T19:04:48.913Z,11.60
2023-03-20T19:07:16.294Z,13.73
2023-03-20T19:09:45.484Z,14.30
2023-03-20T19:12:12.908Z,12.03
2023-03-20T19:14:40.974Z,12.67
2023-03-20T19:17:09.845Z,12.80
2023-03-20T19:19:37.201Z,11.07
2023-03-20T19:22:05.408Z,14.83
2023-03-20T19:24:32.783Z,12.13
2023-03-20T19:27:00.140Z,13.40
2023-03-20T19:29:28.184Z,14.17
2023-03-20T19:31:55.973Z,11.77
2023-03-20T19:35:00.847Z,13.53
2023-03-20T19:36:52.282Z,11.67
2023-03-20T19:39:19.640Z,11.90
2023-03-20T19:41:47.225Z,11.10
2023-03-20T19:44:14.668Z,12.30
2023-03-20T19:46:42.640Z,14.63
2023-03-20T19:49:20.655Z,12.37
2023-03-20T19:51:48.915Z,12.20
2023-03-20T19:54:16.480Z,11.87
2023-03-20T19:56:43.838Z,12.97
2023-03-20T19:59:12.011Z,14.00
2023-03-20T20:01:39.437Z,13.53
2023-03-20T20:04:06.829Z,13.67
2023-03-20T20:06:34.247Z,11.63
2023-03-20T20:09:02.895Z,14.27
2023-03-20T20:11:30.268Z,10.93
2023-03-20T20:14:07.485Z,13.17
2023-03-20T20:16:26.629Z,11.43
2023-03-20T20:18:53.944Z,11.33
2023-03-20T20:23:50.282Z,11.50
2023-03-20T20:26:18.543Z,12.00
2023-03-20T20:28:46.271Z,16.40
2023-03-20T20:31:13.607Z,13.60
2023-03-20T20:33:42.215Z,13.53
2023-03-20T20:36:50.412Z,11.77
2023-03-20T20:38:50.522Z,13.10
2023-03-20T20:41:09.137Z,13.17
2023-03-20T20:44:11.437Z,9.57
2023-03-20T20:46:05.648Z,13.90
2023-03-20T20:48:33.182Z,15.80
2023-03-20T20:51:01.344Z,13.37
2023-03-20T20:53:28.655Z,12.20
2023-03-20T20:55:56.048Z,10.30
2023-03-20T20:58:24.244Z,14.40
2023-03-20T21:00:55.474Z,15.43
2023-03-20T21:03:22.467Z,16.20
2023-03-20T21:05:49.893Z,13.33
2023-03-20T21:08:18.710Z,13.07
2023-03-20T21:10:46.253Z,14.17
2023-03-20T21:13:13.845Z,13.90
2023-03-20T21:15:42.530Z,12.30
2023-03-20T21:18:09.888Z,12.50
2023-03-20T21:20:37.278Z,11.73
2023-03-20T21:23:04.666Z,10.67
2023-03-20T21:25:40.792Z,12.23
2023-03-20T21:28:02.915Z,12.60
2023-03-20T21:30:30.255Z,16.77
2023-03-20T21:32:57.708Z,11.57
2023-03-20T21:35:26.292Z,14.93
2023-03-20T21:40:22.660Z,11.93
2023-03-20T21:42:50.356Z,9.63
2023-03-20T21:50:50.195Z,11.20
2023-03-20T21:53:17.895Z,13.23
2023-03-20T21:56:21.997Z,10.70
2023-03-20T22:02:44.545Z,13.23
2023-03-20T22:08:26.525Z,11.33
2023-03-20T22:11:03.550Z,11.60
2023-03-20T22:25:46.744Z,13.33
2023-03-20T22:31:05.448Z,12.73
2023-03-20T22:43:14.952Z,11.27
2023-03-20T22:45:05.115Z,12.60
2023-03-20T22:47:33.099Z,12.20
2023-03-20T22:50:00.456Z,12.10
2023-03-20T22:52:41.635Z,17.03
2023-03-20T22:54:58.379Z,16.27
2023-03-20T22:57:38.512Z,12.10
2023-03-20T22:59:54.783Z,12.83
2023-03-20T23:02:22.523Z,13.03
2023-03-20T23:04:51.746Z,16.63
2023-03-20T23:07:19.186Z,11.20
2023-03-20T23:09:48.269Z,16.23
2023-03-20T23:12:16.264Z,10.60
2023-03-20T23:14:46.162Z,17.27
2023-03-20T23:17:12.624Z,13.07
2023-03-20T23:19:47.852Z,11.17
2023-03-20T23:22:09.085Z,14.33
2023-03-20T23:24:36.467Z,15.63
2023-03-20T23:27:03.821Z,14.53
2023-03-20T23:29:31.355Z,10.70
2023-03-20T23:31:58.713Z,12.90
2023-03-20T23:34:26.192Z,14.53
2023-03-20T23:36:53.733Z,11.53
2023-03-20T23:39:21.185Z,14.03
2023-03-20T23:44:17.530Z,11.30
2023-03-20T23:46:47.962Z,12.70
2023-03-20T23:49:14.104Z,12.93
2023-03-20T23:51:41.547Z,13.47
2023-03-20T23:54:09.018Z,12.53
2023-03-20T23:56:36.298Z,14.13
2023-03-20T23:59:14.972Z,11.83
